createdAt,value
2022-08-27T00:02:09.924Z,101692.09
2022-08-27T00:04:39.196Z,101684.97
2022-08-27T00:07:08.274Z,101696.47
2022-08-27T00:09:36.988Z,101688.53
2022-08-27T00:12:07.057Z,101677.91
2022-08-27T00:14:40.446Z,101686.78
2022-08-27T00:17:09.365Z,101676.19
2022-08-27T00:19:38.111Z,101678.91
2022-08-27T00:22:10.251Z,101669.19
2022-08-27T00:24:46.389Z,101671.84
2022-08-27T00:27:17.837Z,101671.84
2022-08-27T00:29:47.433Z,101670.06
2022-08-27T00:32:15.833Z,101676.25
2022-08-27T00:34:44.081Z,101676.31
2022-08-27T00:37:12.489Z,101678.16
2022-08-27T00:39:40.674Z,101671.16
2022-08-27T00:42:09.366Z,101666.84
2022-08-27T00:44:38.803Z,101667.81
2022-08-27T00:47:14.238Z,101668.75
2022-08-27T00:49:48.115Z,101677.66
2022-08-27T00:52:23.365Z,101677.72
2022-08-27T00:54:56.219Z,101676.88
2022-08-27T00:57:24.534Z,101674.28
2022-08-27T00:59:54.045Z,101674.31
2022-08-27T01:02:29.342Z,101669.00
2022-08-27T01:05:02.835Z,101670.78
2022-08-27T01:07:34.813Z,101672.56
2022-08-27T01:10:06.069Z,101669.94
2022-08-27T01:12:35.151Z,101676.22
2022-08-27T01:15:12.890Z,101672.81
2022-08-27T01:17:46.620Z,101660.63
2022-08-27T01:20:19.975Z,101666.06
2022-08-27T01:22:58.441Z,101674.16
2022-08-27T01:25:28.755Z,101665.44
2022-08-27T01:27:59.453Z,101676.13
2022-08-27T01:30:28.721Z,101670.94
2022-08-27T01:32:57.778Z,101673.66
2022-08-27T01:35:26.969Z,101673.75
2022-08-27T01:37:57.128Z,101671.16
2022-08-27T01:40:27.106Z,101672.13
2022-08-27T01:42:58.433Z,101673.09
2022-08-27T01:45:29.759Z,101681.13
2022-08-27T01:47:59.244Z,101685.59
2022-08-27T01:50:31.803Z,101668.91
2022-08-27T01:53:04.188Z,101672.47
2022-08-27T01:55:34.003Z,101675.16
2022-08-27T01:58:02.383Z,101673.47
2022-08-27T02:00:34.987Z,101682.28
2022-08-27T02:03:03.625Z,101682.28
2022-08-27T02:05:32.130Z,101680.50
2022-08-27T02:08:15.864Z,101687.47
2022-08-27T02:10:51.801Z,101689.22
2022-08-27T02:13:19.986Z,101680.34
2022-08-27T02:15:48.570Z,101677.66
2022-08-27T02:18:17.411Z,101675.00
2022-08-27T02:20:48.056Z,101681.13
2022-08-27T02:23:17.214Z,101684.63
2022-08-27T02:25:47.693Z,101678.41
2022-08-27T02:28:16.333Z,101681.88
2022-08-27T02:30:46.714Z,101673.00
2022-08-27T02:33:15.264Z,101678.25
2022-08-27T02:35:44.315Z,101674.69
2022-08-27T02:38:14.000Z,101670.28
2022-08-27T02:40:42.250Z,101672.91
2022-08-27T02:43:16.131Z,101671.13
2022-08-27T02:45:54.047Z,101671.97
2022-08-27T02:48:23.164Z,101678.13
2022-08-27T02:50:51.617Z,101672.88
2022-08-27T02:53:20.040Z,101672.84
2022-08-27T02:55:48.685Z,101673.75
2022-08-27T02:58:18.100Z,101671.97
2022-08-27T03:00:46.547Z,101677.22
2022-08-27T03:03:15.772Z,101681.56
2022-08-27T03:05:43.925Z,101674.44
2022-08-27T03:08:12.348Z,101676.19
2022-08-27T03:10:41.117Z,101671.78
2022-08-27T03:13:09.242Z,101666.53
2022-08-27T03:15:39.461Z,101671.84
2022-08-27T03:18:18.604Z,101668.41
2022-08-27T03:20:50.710Z,101664.94
2022-08-27T03:23:22.283Z,101671.16
2022-08-27T03:25:53.365Z,101672.06
2022-08-27T03:28:23.827Z,101682.69
2022-08-27T03:30:58.469Z,101681.81
2022-08-27T03:33:27.226Z,101674.75
2022-08-27T03:35:55.557Z,101675.66
2022-08-27T03:38:25.677Z,101680.03
2022-08-27T03:40:54.437Z,101678.25
2022-08-27T03:43:24.035Z,101672.91
2022-08-27T03:46:00.534Z,101670.25
2022-08-27T03:48:30.936Z,101672.84
2022-08-27T03:50:59.270Z,101675.41
2022-08-27T03:53:28.269Z,101676.22
2022-08-27T03:55:56.357Z,101663.84
2022-08-27T03:58:24.459Z,101676.16
2022-08-27T04:00:54.062Z,101663.78
2022-08-27T04:03:22.373Z,101671.66
2022-08-27T04:05:54.916Z,101666.28
2022-08-27T04:08:23.592Z,101669.81
2022-08-27T04:10:53.676Z,101665.41
2022-08-27T04:13:23.192Z,101664.63
2022-08-27T04:15:55.366Z,101662.97
2022-08-27T04:18:23.723Z,101665.78
2022-08-27T04:20:53.481Z,101657.97
2022-08-27T04:23:22.269Z,101661.66
2022-08-27T04:25:50.476Z,101656.47
2022-08-27T04:28:18.626Z,101662.69
2022-08-27T04:30:50.221Z,101661.91
2022-08-27T04:33:19.672Z,101660.19
2022-08-27T04:35:47.862Z,101659.38
2022-08-27T04:38:15.968Z,101661.22
2022-08-27T04:41:01.545Z,101655.94
2022-08-27T04:43:29.909Z,101657.75
2022-08-27T04:45:58.059Z,101656.88
2022-08-27T04:48:27.866Z,101656.88
2022-08-27T04:50:55.971Z,101663.91
2022-08-27T04:53:24.461Z,101661.25
2022-08-27T04:55:55.931Z,101657.75
2022-08-27T04:58:26.142Z,101663.94
2022-08-27T05:00:59.960Z,101660.44
2022-08-27T05:03:30.175Z,101663.13
2022-08-27T05:06:02.841Z,101666.69
2022-08-27T05:08:32.191Z,101670.19
2022-08-27T05:11:00.478Z,101664.03
2022-08-27T05:13:29.608Z,101662.28
2022-08-27T05:16:03.591Z,101666.72
2022-08-27T05:18:41.336Z,101660.56
2022-08-27T05:21:19.609Z,101667.63
2022-08-27T05:23:48.093Z,101668.50
2022-08-27T05:26:16.730Z,101668.50
2022-08-27T05:28:45.191Z,101676.44
2022-08-27T05:31:15.423Z,101677.31
2022-08-27T05:33:45.257Z,101681.69
2022-08-27T05:36:19.725Z,101677.25
2022-08-27T05:38:49.331Z,101678.09
2022-08-27T05:41:20.850Z,101675.41
2022-08-27T05:43:50.706Z,101672.66
2022-08-27T05:46:25.130Z,101669.09
2022-08-27T05:48:58.314Z,101676.94
2022-08-27T05:51:29.994Z,101681.22
2022-08-27T05:54:04.556Z,101678.47
2022-08-27T05:56:37.588Z,101676.59
2022-08-27T05:59:24.660Z,101687.06
2022-08-27T06:01:55.822Z,101679.00
2022-08-27T06:04:26.485Z,101676.22
2022-08-27T06:06:55.347Z,101677.88
2022-08-27T06:09:25.768Z,101679.50
2022-08-27T06:11:55.600Z,101687.34
2022-08-27T06:14:24.370Z,101676.59
2022-08-27T06:16:52.693Z,101683.41
2022-08-27T06:19:21.034Z,101683.97
2022-08-27T06:22:01.300Z,101684.53
2022-08-27T06:24:40.363Z,101691.31
2022-08-27T06:27:11.243Z,101686.63
2022-08-27T06:29:40.264Z,101690.91
2022-08-27T06:32:09.543Z,101684.56
2022-08-27T06:34:38.334Z,101702.03
2022-08-27T06:37:08.478Z,101697.28
2022-08-27T06:39:37.776Z,101701.31
2022-08-27T06:42:13.286Z,101706.19
2022-08-27T06:44:42.079Z,101703.09
2022-08-27T06:47:10.351Z,101697.34
2022-08-27T06:49:43.416Z,101702.31
2022-08-27T06:52:15.989Z,101703.72
2022-08-27T06:54:44.981Z,101701.72
2022-08-27T06:57:13.119Z,101711.22
2022-08-27T06:59:41.205Z,101698.50
2022-08-27T07:02:09.687Z,101701.78
2022-08-27T07:04:38.507Z,101700.69
2022-08-27T07:07:08.049Z,101704.09
2022-08-27T07:09:38.445Z,101714.47
2022-08-27T07:12:07.616Z,101713.31
2022-08-27T07:14:38.274Z,101715.72
2022-08-27T07:17:10.714Z,101712.88
2022-08-27T07:19:40.841Z,101718.94
2022-08-27T07:22:10.815Z,101724.09
2022-08-27T07:24:41.030Z,101726.47
2022-08-27T07:27:10.797Z,101725.22
2022-08-27T07:29:39.910Z,101724.94
2022-08-27T07:32:08.141Z,101727.44
2022-08-27T07:34:36.500Z,101727.19
2022-08-27T07:37:04.842Z,101722.47
2022-08-27T07:39:33.079Z,101725.88
2022-08-27T07:42:19.958Z,101726.59
2022-08-27T07:44:48.039Z,101724.63
2022-08-27T07:47:16.278Z,101726.97
2022-08-27T07:49:44.398Z,101727.19
2022-08-27T07:52:13.587Z,101723.78
2022-08-27T07:54:42.174Z,101720.91
2022-08-27T07:57:12.585Z,101725.44
2022-08-27T07:59:40.801Z,101729.25
2022-08-27T08:02:08.993Z,101730.19
2022-08-27T08:04:37.151Z,101729.25
2022-08-27T08:07:06.640Z,101730.19
2022-08-27T08:09:34.929Z,101731.19
2022-08-27T08:12:03.473Z,101741.06
2022-08-27T08:14:33.490Z,101740.13
2022-08-27T08:17:02.890Z,101741.66
2022-08-27T08:19:33.999Z,101728.94
2022-08-27T08:22:05.708Z,101735.72
2022-08-27T08:24:34.915Z,101737.94
2022-08-27T08:27:07.216Z,101741.00
2022-08-27T08:29:38.036Z,101741.03
2022-08-27T08:32:07.363Z,101741.41
2022-08-27T08:34:36.800Z,101745.41
2022-08-27T08:37:06.779Z,101747.09
2022-08-27T08:39:36.287Z,101756.06
2022-08-27T08:42:08.438Z,101753.75
2022-08-27T08:44:43.245Z,101754.88
2022-08-27T08:47:16.770Z,101763.88
2022-08-27T08:49:52.951Z,101753.28
2022-08-27T08:52:33.827Z,101756.81
2022-08-27T08:55:16.486Z,101752.16
2022-08-27T08:57:53.258Z,101759.53
2022-08-27T09:00:23.100Z,101758.03
2022-08-27T09:02:55.546Z,101756.88
2022-08-27T09:05:27.859Z,101753.28
2022-08-27T09:08:31.938Z,101765.13
2022-08-27T09:11:08.236Z,101760.81
2022-08-27T09:13:42.814Z,101766.63
2022-08-27T09:16:12.318Z,101778.16
2022-08-27T09:18:45.453Z,101774.78
2022-08-27T09:21:28.295Z,101778.63
2022-08-27T09:24:14.937Z,101775.81
2022-08-27T09:26:45.674Z,101776.41
2022-08-27T09:29:19.809Z,101780.41
2022-08-27T09:31:56.766Z,101786.41
2022-08-27T09:34:27.458Z,101778.88
2022-08-27T09:37:06.764Z,101784.81
2022-08-27T09:39:43.785Z,101786.25
2022-08-27T09:42:31.579Z,101782.34
2022-08-27T09:45:09.191Z,101782.03
2022-08-27T09:47:47.292Z,101777.34
2022-08-27T09:50:18.738Z,101777.13
2022-08-27T09:52:55.255Z,101778.84
2022-08-27T09:55:44.765Z,101777.41
2022-08-27T09:58:21.735Z,101774.81
2022-08-27T10:00:58.808Z,101778.34
2022-08-27T10:03:32.748Z,101784.00
2022-08-27T10:06:01.858Z,101784.38
2022-08-27T10:08:39.779Z,101778.56
2022-08-27T10:11:16.355Z,101786.91
2022-08-27T10:13:53.414Z,101790.97
2022-08-27T10:16:52.583Z,101782.53
2022-08-27T10:19:43.882Z,101777.59
2022-08-27T10:22:27.491Z,101784.56
2022-08-27T10:25:15.406Z,101788.50
2022-08-27T10:27:55.188Z,101792.31
2022-08-27T10:30:32.807Z,101780.84
2022-08-27T10:33:10.612Z,101792.00
2022-08-27T10:35:55.033Z,101786.63
2022-08-27T10:38:31.954Z,101788.72
2022-08-27T10:41:06.543Z,101785.63
2022-08-27T10:44:02.511Z,101787.38
2022-08-27T10:47:01.351Z,101790.50
2022-08-27T10:49:39.887Z,101791.44
2022-08-27T10:52:18.948Z,101786.63
2022-08-27T10:54:58.328Z,101777.44
2022-08-27T10:57:56.354Z,101783.63
2022-08-27T11:00:40.868Z,101783.69
2022-08-27T11:03:15.076Z,101780.94
2022-08-27T11:05:47.184Z,101787.38
2022-08-27T11:08:22.711Z,101782.09
2022-08-27T11:10:56.748Z,101773.25
2022-08-27T11:13:37.329Z,101781.03
2022-08-27T11:16:27.577Z,101780.44
2022-08-27T11:19:00.515Z,101771.69
2022-08-27T11:21:35.754Z,101784.06
2022-08-27T11:24:22.608Z,101781.56
2022-08-27T11:26:53.813Z,101784.06
2022-08-27T11:29:29.560Z,101781.03
2022-08-27T11:32:07.303Z,101780.59
2022-08-27T11:34:42.911Z,101772.16
2022-08-27T11:37:40.987Z,101782.25
2022-08-27T11:40:42.865Z,101776.59
2022-08-27T11:43:14.899Z,101779.22
2022-08-27T11:45:57.600Z,101771.03
2022-08-27T11:48:30.001Z,101775.78
2022-08-27T11:51:01.771Z,101767.72
2022-08-27T11:53:33.426Z,101767.16
2022-08-27T11:56:16.874Z,101774.34
2022-08-27T11:58:53.427Z,101778.84
2022-08-27T12:01:28.672Z,101766.56
2022-08-27T12:04:06.387Z,101772.56
2022-08-27T12:06:45.149Z,101763.34
2022-08-27T12:09:20.477Z,101769.09
2022-08-27T12:12:04.771Z,101767.97
2022-08-27T12:14:44.573Z,101763.88
2022-08-27T12:17:23.233Z,101757.50
2022-08-27T12:20:06.536Z,101770.34
2022-08-27T12:23:21.553Z,101770.59
2022-08-27T12:25:58.667Z,101778.66
2022-08-27T12:28:29.309Z,101763.94
2022-08-27T12:30:58.675Z,101764.72
2022-08-27T12:33:34.402Z,101769.50
2022-08-27T12:36:11.527Z,101758.44
2022-08-27T12:38:50.528Z,101758.09
2022-08-27T12:41:28.212Z,101747.16
2022-08-27T12:44:10.010Z,101746.09
2022-08-27T12:46:47.383Z,101748.66
2022-08-27T12:49:39.147Z,101742.84
2022-08-27T12:52:21.145Z,101752.22
2022-08-27T12:55:04.686Z,101759.78
2022-08-27T12:57:42.089Z,101752.78
2022-08-27T13:00:19.290Z,101759.47
2022-08-27T13:03:16.197Z,101759.97
2022-08-27T13:05:48.903Z,101757.91
2022-08-27T13:08:23.255Z,101759.88
2022-08-27T13:10:52.319Z,101762.81
2022-08-27T13:13:22.852Z,101748.91
2022-08-27T13:15:58.546Z,101760.53
2022-08-27T13:18:29.931Z,101753.41
2022-08-27T13:21:07.427Z,101756.44
2022-08-27T13:23:35.719Z,101758.59
2022-08-27T13:26:10.002Z,101758.53
2022-08-27T13:28:41.248Z,101751.16
2022-08-27T13:31:12.017Z,101744.75
2022-08-27T13:33:42.356Z,101750.94
2022-08-27T13:36:11.464Z,101748.31
2022-08-27T13:38:47.861Z,101759.66
2022-08-27T13:41:28.693Z,101755.94
2022-08-27T13:43:59.578Z,101761.78
2022-08-27T13:46:33.814Z,101756.06
2022-08-27T13:49:02.160Z,101753.31
2022-08-27T13:51:33.871Z,101757.03
2022-08-27T13:54:15.730Z,101758.44
2022-08-27T13:57:03.602Z,101748.19
2022-08-27T13:59:33.209Z,101754.31
2022-08-27T14:02:17.031Z,101756.31
2022-08-27T14:04:47.505Z,101755.13
2022-08-27T14:07:23.784Z,101757.75
2022-08-27T14:09:57.226Z,101759.59
2022-08-27T14:12:33.331Z,101759.84
2022-08-27T14:15:22.270Z,101759.72
2022-08-27T14:17:52.124Z,101758.59
2022-08-27T14:20:21.401Z,101752.03
2022-08-27T14:22:50.504Z,101761.00
2022-08-27T14:25:22.409Z,101754.44
2022-08-27T14:27:54.604Z,101750.25
2022-08-27T14:30:29.697Z,101758.53
2022-08-27T14:33:01.571Z,101756.94
2022-08-27T14:35:32.788Z,101758.28
2022-08-27T14:38:06.005Z,101756.97
2022-08-27T14:40:35.701Z,101755.56
2022-08-27T14:43:03.979Z,101767.50
2022-08-27T14:45:35.454Z,101757.88
2022-08-27T14:48:07.673Z,101761.44
2022-08-27T14:50:46.903Z,101766.69
2022-08-27T14:53:15.267Z,101756.19
2022-08-27T14:55:44.889Z,101764.66
2022-08-27T14:58:21.110Z,101767.19
2022-08-27T15:00:51.958Z,101769.47
2022-08-27T15:03:25.573Z,101773.25
2022-08-27T15:05:55.837Z,101766.25
2022-08-27T15:08:29.062Z,101770.91
2022-08-27T15:10:58.149Z,101773.66
2022-08-27T15:13:26.525Z,101768.00
2022-08-27T15:15:54.721Z,101772.59
2022-08-27T15:18:24.291Z,101764.06
2022-08-27T15:20:54.728Z,101776.47
2022-08-27T15:23:22.906Z,101779.28
2022-08-27T15:25:51.193Z,101761.88
2022-08-27T15:28:19.351Z,101776.09
2022-08-27T15:30:47.627Z,101782.69
2022-08-27T15:33:15.761Z,101778.22
2022-08-27T15:35:45.374Z,101778.63
2022-08-27T15:38:13.611Z,101789.47
2022-08-27T15:40:41.997Z,101788.63
2022-08-27T15:43:11.799Z,101785.81
2022-08-27T15:45:39.870Z,101790.97
2022-08-27T15:48:08.211Z,101789.22
2022-08-27T15:50:38.177Z,101792.16
2022-08-27T15:53:10.845Z,101797.19
2022-08-27T15:55:43.053Z,101804.53
2022-08-27T15:58:11.779Z,101803.03
2022-08-27T16:00:42.634Z,101810.75
2022-08-27T16:03:14.131Z,101812.03
2022-08-27T16:05:46.120Z,101810.16
2022-08-27T16:08:15.940Z,101807.22
2022-08-27T16:10:44.106Z,101815.16
2022-08-27T16:13:14.122Z,101817.31
2022-08-27T16:15:43.034Z,101809.47
2022-08-27T16:18:11.887Z,101818.91
2022-08-27T16:20:42.337Z,101809.53
2022-08-27T16:23:10.505Z,101815.97
2022-08-27T16:25:40.357Z,101808.91
2022-08-27T16:28:08.539Z,101815.38
2022-08-27T16:30:36.995Z,101818.72
2022-08-27T16:33:05.473Z,101818.78
2022-08-27T16:35:33.684Z,101822.13
2022-08-27T16:38:01.841Z,101821.97
2022-08-27T16:40:30.490Z,101816.59
2022-08-27T16:43:01.534Z,101809.53
2022-08-27T16:45:29.826Z,101814.94
2022-08-27T16:48:15.379Z,101826.63
2022-08-27T16:50:44.222Z,101820.56
2022-08-27T16:53:14.871Z,101822.94
2022-08-27T16:55:47.854Z,101819.34
2022-08-27T16:58:22.482Z,101822.41
2022-08-27T17:00:53.654Z,101821.97
2022-08-27T17:03:23.866Z,101817.56
2022-08-27T17:05:53.408Z,101821.78
2022-08-27T17:08:26.211Z,101817.03
2022-08-27T17:10:56.924Z,101817.50
2022-08-27T17:13:30.012Z,101814.41
2022-08-27T17:16:01.067Z,101822.69
2022-08-27T17:18:29.951Z,101822.38
2022-08-27T17:21:00.817Z,101815.16
2022-08-27T17:23:35.281Z,101819.50
2022-08-27T17:26:05.725Z,101819.97
2022-08-27T17:28:35.452Z,101816.38
2022-08-27T17:31:04.390Z,101824.56
2022-08-27T17:33:38.899Z,101825.06
2022-08-27T17:36:09.354Z,101826.47
2022-08-27T17:38:38.943Z,101823.03
2022-08-27T17:41:14.863Z,101826.06
2022-08-27T17:43:44.769Z,101831.53
2022-08-27T17:46:13.781Z,101832.91
2022-08-27T17:48:42.576Z,101823.25
2022-08-27T17:51:13.286Z,101829.25
2022-08-27T17:53:48.125Z,101838.28
2022-08-27T17:56:18.421Z,101841.28
2022-08-27T17:58:48.382Z,101840.41
2022-08-27T18:01:22.857Z,101842.34
2022-08-27T18:03:58.949Z,101837.75
2022-08-27T18:06:28.842Z,101833.88
2022-08-27T18:08:56.976Z,101838.09
2022-08-27T18:11:25.380Z,101851.03
2022-08-27T18:14:02.780Z,101845.78
2022-08-27T18:16:33.269Z,101844.16
2022-08-27T18:19:02.132Z,101844.88
2022-08-27T18:21:35.728Z,101851.78
2022-08-27T18:24:11.296Z,101847.81
2022-08-27T18:26:39.578Z,101860.25
2022-08-27T18:29:09.193Z,101851.31
2022-08-27T18:31:37.503Z,101851.09
2022-08-27T18:34:05.764Z,101845.50
2022-08-27T18:36:33.942Z,101854.03
2022-08-27T18:39:02.068Z,101861.63
2022-08-27T18:41:32.044Z,101867.41
2022-08-27T18:44:02.716Z,101867.78
2022-08-27T18:46:32.345Z,101868.06
2022-08-27T18:49:00.494Z,101872.69
2022-08-27T18:51:31.141Z,101873.81
2022-08-27T18:54:05.137Z,101881.97
2022-08-27T18:56:33.427Z,101873.31
2022-08-27T18:59:01.659Z,101874.34
2022-08-27T19:01:31.918Z,101876.28
2022-08-27T19:04:02.893Z,101880.84
2022-08-27T19:06:32.338Z,101876.50
2022-08-27T19:09:00.750Z,101875.72
2022-08-27T19:11:29.187Z,101882.97
2022-08-27T19:13:57.542Z,101886.66
2022-08-27T19:16:35.517Z,101886.00
2022-08-27T19:19:05.621Z,101889.75
2022-08-27T19:21:38.160Z,101889.91
2022-08-27T19:24:07.556Z,101882.91
2022-08-27T19:26:36.665Z,101884.69
2022-08-27T19:29:05.181Z,101891.88
2022-08-27T19:31:36.504Z,101890.25
2022-08-27T19:34:05.838Z,101894.00
2022-08-27T19:36:38.096Z,101900.34
2022-08-27T19:39:11.437Z,101896.13
2022-08-27T19:41:39.578Z,101884.78
2022-08-27T19:44:07.816Z,101900.88
2022-08-27T19:46:37.972Z,101897.47
2022-08-27T19:49:06.293Z,101903.81
2022-08-27T19:51:34.614Z,101904.75
2022-08-27T19:54:03.821Z,101911.97
2022-08-27T19:56:32.679Z,101915.59
2022-08-27T19:59:13.444Z,101914.81
2022-08-27T20:01:50.327Z,101909.59
2022-08-27T20:04:18.465Z,101904.38
2022-08-27T20:06:46.667Z,101911.56
2022-08-27T20:09:16.135Z,101907.19
2022-08-27T20:11:45.892Z,101904.63
2022-08-27T20:14:14.470Z,101905.56
2022-08-27T20:16:43.076Z,101899.44
2022-08-27T20:19:13.219Z,101910.09
2022-08-27T20:21:41.783Z,101897.75
2022-08-27T20:24:10.118Z,101903.06
2022-08-27T20:26:39.266Z,101903.97
2022-08-27T20:29:08.774Z,101903.06
2022-08-27T20:31:36.960Z,101898.72
2022-08-27T20:34:05.376Z,101903.16
2022-08-27T20:36:35.597Z,101902.28
2022-08-27T20:39:04.857Z,101919.13
2022-08-27T20:41:33.260Z,101917.41
2022-08-27T20:44:02.104Z,101917.41
2022-08-27T20:46:31.961Z,101926.19
2022-08-27T20:49:00.081Z,101919.00
2022-08-27T20:51:28.812Z,101914.53
2022-08-27T20:53:58.292Z,101912.75
2022-08-27T20:56:26.459Z,101921.59
2022-08-27T20:59:12.064Z,101920.75
2022-08-27T21:01:40.318Z,101920.84
2022-08-27T21:04:08.495Z,101918.28
2022-08-27T21:06:36.659Z,101916.53
2022-08-27T21:09:06.363Z,101919.25
2022-08-27T21:11:34.544Z,101915.81
2022-08-27T21:14:02.649Z,101917.59
2022-08-27T21:16:31.311Z,101911.47
2022-08-27T21:18:59.805Z,101913.25
2022-08-27T21:21:27.962Z,101913.28
2022-08-27T21:23:56.053Z,101910.59
2022-08-27T21:26:25.543Z,101910.56
2022-08-27T21:28:55.760Z,101911.41
2022-08-27T21:31:25.012Z,101910.44
2022-08-27T21:33:53.370Z,101903.28
2022-08-27T21:36:21.786Z,101906.72
2022-08-27T21:38:50.211Z,101908.38
2022-08-27T21:41:18.646Z,101908.31
2022-08-27T21:43:48.152Z,101911.78
2022-08-27T21:46:16.252Z,101915.25
2022-08-27T21:48:44.701Z,101909.94
2022-08-27T21:51:24.442Z,101908.16
2022-08-27T21:53:52.878Z,101916.16
2022-08-27T21:56:21.018Z,101912.75
2022-08-27T21:58:50.785Z,101915.50
2022-08-27T22:01:19.771Z,101917.34
2022-08-27T22:03:50.672Z,101913.00
2022-08-27T22:06:19.298Z,101915.72
2022-08-27T22:08:47.529Z,101916.56
2022-08-27T22:11:20.611Z,101920.06
2022-08-27T22:13:53.249Z,101920.88
2022-08-27T22:16:21.449Z,101913.84
2022-08-27T22:18:54.293Z,101929.75
2022-08-27T22:21:23.278Z,101920.97
2022-08-27T22:23:52.355Z,101921.91
2022-08-27T22:26:22.011Z,101920.22
2022-08-27T22:28:50.839Z,101921.16
2022-08-27T22:31:20.511Z,101926.50
2022-08-27T22:33:48.796Z,101923.03
2022-08-27T22:36:17.106Z,101914.25
2022-08-27T22:38:45.176Z,101921.34
2022-08-27T22:41:14.944Z,101915.22
2022-08-27T22:43:46.920Z,101920.53
2022-08-27T22:46:15.105Z,101925.84
2022-08-27T22:48:44.699Z,101923.22
2022-08-27T22:51:12.843Z,101921.47
2022-08-27T22:53:40.914Z,101923.25
2022-08-27T22:56:09.045Z,101931.22
2022-08-27T22:58:37.256Z,101930.38
2022-08-27T23:01:05.769Z,101930.38
2022-08-27T23:03:33.939Z,101932.16
2022-08-27T23:06:03.727Z,101933.03
2022-08-27T23:08:32.096Z,101928.66
2022-08-27T23:11:03.370Z,101929.56
2022-08-27T23:13:32.452Z,101929.59
2022-08-27T23:16:01.489Z,101926.06
2022-08-27T23:18:30.174Z,101928.72
2022-08-27T23:20:58.542Z,101935.78
2022-08-27T23:23:30.675Z,101935.78
2022-08-27T23:26:16.815Z,101932.28
2022-08-27T23:28:45.189Z,101932.28
2022-08-27T23:31:14.269Z,101937.56
2022-08-27T23:33:45.808Z,101925.25
2022-08-27T23:36:14.318Z,101936.69
2022-08-27T23:38:43.878Z,101931.41
2022-08-27T23:41:12.090Z,101929.66
2022-08-27T23:43:40.262Z,101926.13
2022-08-27T23:46:08.697Z,101926.16
2022-08-27T23:48:39.387Z,101920.84
2022-08-27T23:51:07.841Z,101929.66
2022-08-27T23:53:36.081Z,101928.78
2022-08-27T23:56:06.749Z,101923.50
2022-08-27T23:58:34.931Z,101924.41
